sensor_id;sensor_type;location;lat;lon;timestamp;temperature;humidity
5560;DHT22;2803;47.916;8.074;2023-04-24T00:01:39;12.50;99.90
5560;DHT22;2803;47.916;8.074;2023-04-24T00:04:08;12.60;99.90
5560;DHT22;2803;47.916;8.074;2023-04-24T00:06:37;12.70;99.90
5560;DHT22;2803;47.916;8.074;2023-04-24T00:09:04;12.60;99.90
5560;DHT22;2803;47.916;8.074;2023-04-24T00:11:30;12.60;99.90
5560;DHT22;2803;47.916;8.074;2023-04-24T00:13:57;12.50;99.90
5560;DHT22;2803;47.916;8.074;2023-04-24T00:16:24;12.40;99.90
5560;DHT22;2803;47.916;8.074;2023-04-24T00:18:50;12.20;99.90
5560;DHT22;2803;47.916;8.074;2023-04-24T00:21:18;12.50;99.90
5560;DHT22;2803;47.916;8.074;2023-04-24T00:23:46;12.90;99.90
5560;DHT22;2803;47.916;8.074;2023-04-24T00:26:12;12.70;99.90
5560;DHT22;2803;47.916;8.074;2023-04-24T00:28:39;12.80;99.90
5560;DHT22;2803;47.916;8.074;2023-04-24T00:31:06;13.20;99.90
5560;DHT22;2803;47.916;8.074;2023-04-24T00:33:33;12.90;99.90
5560;DHT22;2803;47.916;8.074;2023-04-24T00:36:00;13.00;99.90
5560;DHT22;2803;47.916;8.074;2023-04-24T00:38:27;13.10;99.90
5560;DHT22;2803;47.916;8.074;2023-04-24T00:40:55;12.90;99.90
5560;DHT22;2803;47.916;8.074;2023-04-24T00:43:21;13.20;99.90
5560;DHT22;2803;47.916;8.074;2023-04-24T00:45:48;12.90;99.90
5560;DHT22;2803;47.916;8.074;2023-04-24T00:48:15;12.80;99.90
5560;DHT22;2803;47.916;8.074;2023-04-24T00:50:42;12.80;99.90
5560;DHT22;2803;47.916;8.074;2023-04-24T00:53:09;12.70;99.90
5560;DHT22;2803;47.916;8.074;2023-04-24T00:55:36;12.40;99.90
5560;DHT22;2803;47.916;8.074;2023-04-24T00:58:04;12.40;99.90
5560;DHT22;2803;47.916;8.074;2023-04-24T01:00:31;12.20;99.90
5560;DHT22;2803;47.916;8.074;2023-04-24T01:02:59;12.40;99.90
5560;DHT22;2803;47.916;8.074;2023-04-24T01:05:28;12.20;99.90
5560;DHT22;2803;47.916;8.074;2023-04-24T01:07:54;12.70;99.90
5560;DHT22;2803;47.916;8.074;2023-04-24T01:10:22;13.00;99.90
5560;DHT22;2803;47.916;8.074;2023-04-24T01:12:50;12.40;99.90
5560;DHT22;2803;47.916;8.074;2023-04-24T01:15:18;12.70;99.90
5560;DHT22;2803;47.916;8.074;2023-04-24T01:17:44;12.40;99.90
5560;DHT22;2803;47.916;8.074;2023-04-24T01:20:12;12.20;99.90
5560;DHT22;2803;47.916;8.074;2023-04-24T01:22:42;12.60;99.90
5560;DHT22;2803;47.916;8.074;2023-04-24T01:25:09;12.50;99.90
5560;DHT22;2803;47.916;8.074;2023-04-24T01:27:36;12.90;99.90
5560;DHT22;2803;47.916;8.074;2023-04-24T01:30:02;12.60;99.90
5560;DHT22;2803;47.916;8.074;2023-04-24T01:32:29;12.50;99.90
5560;DHT22;2803;47.916;8.074;2023-04-24T01:34:56;11.80;99.90
5560;DHT22;2803;47.916;8.074;2023-04-24T01:37:23;11.90;99.90
5560;DHT22;2803;47.916;8.074;2023-04-24T01:39:51;12.30;99.90
5560;DHT22;2803;47.916;8.074;2023-04-24T01:42:17;12.90;99.90
5560;DHT22;2803;47.916;8.074;2023-04-24T01:44:44;12.50;99.90
5560;DHT22;2803;47.916;8.074;2023-04-24T01:47:12;13.00;99.90
5560;DHT22;2803;47.916;8.074;2023-04-24T01:49:38;13.40;99.90
5560;DHT22;2803;47.916;8.074;2023-04-24T01:52:05;13.50;99.90
5560;DHT22;2803;47.916;8.074;2023-04-24T01:54:32;13.60;99.90
5560;DHT22;2803;47.916;8.074;2023-04-24T01:57:00;13.40;99.90
5560;DHT22;2803;47.916;8.074;2023-04-24T01:59:28;13.60;99.90
5560;DHT22;2803;47.916;8.074;2023-04-24T02:01:54;13.30;99.90
5560;DHT22;2803;47.916;8.074;2023-04-24T02:04:21;13.20;99.90
5560;DHT22;2803;47.916;8.074;2023-04-24T02:06:47;12.70;99.90
5560;DHT22;2803;47.916;8.074;2023-04-24T02:09:14;12.70;99.90
5560;DHT22;2803;47.916;8.074;2023-04-24T02:11:41;13.00;99.90
5560;DHT22;2803;47.916;8.074;2023-04-24T02:14:09;12.40;99.90
5560;DHT22;2803;47.916;8.074;2023-04-24T02:16:35;12.20;99.90
5560;DHT22;2803;47.916;8.074;2023-04-24T02:19:02;12.50;99.90
5560;DHT22;2803;47.916;8.074;2023-04-24T02:21:28;12.70;99.90
5560;DHT22;2803;47.916;8.074;2023-04-24T02:23:56;12.50;99.90
5560;DHT22;2803;47.916;8.074;2023-04-24T02:26:23;12.50;99.90
5560;DHT22;2803;47.916;8.074;2023-04-24T02:28:50;12.20;99.90
5560;DHT22;2803;47.916;8.074;2023-04-24T02:31:18;12.50;99.90
5560;DHT22;2803;47.916;8.074;2023-04-24T02:33:45;12.40;99.90
5560;DHT22;2803;47.916;8.074;2023-04-24T02:36:11;12.70;99.90
5560;DHT22;2803;47.916;8.074;2023-04-24T02:38:38;12.50;99.90
5560;DHT22;2803;47.916;8.074;2023-04-24T02:41:05;12.20;99.90
5560;DHT22;2803;47.916;8.074;2023-04-24T02:43:32;12.10;99.90
5560;DHT22;2803;47.916;8.074;2023-04-24T02:45:59;11.90;99.90
5560;DHT22;2803;47.916;8.074;2023-04-24T02:48:27;12.40;99.90
5560;DHT22;2803;47.916;8.074;2023-04-24T02:50:53;12.40;99.90
5560;DHT22;2803;47.916;8.074;2023-04-24T02:53:20;12.60;99.90
5560;DHT22;2803;47.916;8.074;2023-04-24T02:55:46;12.70;99.90
5560;DHT22;2803;47.916;8.074;2023-04-24T02:58:13;12.80;99.90
5560;DHT22;2803;47.916;8.074;2023-04-24T03:00:40;12.70;99.90
5560;DHT22;2803;47.916;8.074;2023-04-24T03:03:07;12.90;99.90
5560;DHT22;2803;47.916;8.074;2023-04-24T03:05:35;12.40;99.90
5560;DHT22;2803;47.916;8.074;2023-04-24T03:08:01;12.50;99.90
5560;DHT22;2803;47.916;8.074;2023-04-24T03:10:28;12.40;99.90
5560;DHT22;2803;47.916;8.074;2023-04-24T03:12:54;12.50;99.90
5560;DHT22;2803;47.916;8.074;2023-04-24T03:15:21;12.80;99.90
5560;DHT22;2803;47.916;8.074;2023-04-24T03:17:47;12.80;99.90
5560;DHT22;2803;47.916;8.074;2023-04-24T03:20:14;13.10;99.90
5560;DHT22;2803;47.916;8.074;2023-04-24T03:22:42;12.90;99.90
5560;DHT22;2803;47.916;8.074;2023-04-24T03:25:09;12.60;99.90
5560;DHT22;2803;47.916;8.074;2023-04-24T03:27:35;12.30;99.90
5560;DHT22;2803;47.916;8.074;2023-04-24T03:30:02;12.30;99.90
5560;DHT22;2803;47.916;8.074;2023-04-24T03:32:29;12.30;99.90
5560;DHT22;2803;47.916;8.074;2023-04-24T03:34:57;12.40;99.90
5560;DHT22;2803;47.916;8.074;2023-04-24T03:37:24;12.50;99.90
5560;DHT22;2803;47.916;8.074;2023-04-24T03:39:53;12.10;99.90
5560;DHT22;2803;47.916;8.074;2023-04-24T03:42:19;11.90;99.90
5560;DHT22;2803;47.916;8.074;2023-04-24T03:44:46;12.00;99.90
5560;DHT22;2803;47.916;8.074;2023-04-24T03:47:12;11.40;99.90
5560;DHT22;2803;47.916;8.074;2023-04-24T03:49:39;11.40;99.90
5560;DHT22;2803;47.916;8.074;2023-04-24T03:52:05;11.30;99.90
5560;DHT22;2803;47.916;8.074;2023-04-24T03:54:32;11.10;99.90
5560;DHT22;2803;47.916;8.074;2023-04-24T03:57:00;10.50;99.90
5560;DHT22;2803;47.916;8.074;2023-04-24T03:59:27;11.10;99.90
5560;DHT22;2803;47.916;8.074;2023-04-24T04:01:53;11.40;99.90
5560;DHT22;2803;47.916;8.074;2023-04-24T04:04:20;10.90;99.90
5560;DHT22;2803;47.916;8.074;2023-04-24T04:06:47;11.10;99.90
5560;DHT22;2803;47.916;8.074;2023-04-24T04:09:14;11.60;99.90
5560;DHT22;2803;47.916;8.074;2023-04-24T04:11:41;11.30;99.90
5560;DHT22;2803;47.916;8.074;2023-04-24T04:14:08;11.10;99.90
5560;DHT22;2803;47.916;8.074;2023-04-24T04:16:35;11.30;99.90
5560;DHT22;2803;47.916;8.074;2023-04-24T04:19:02;11.70;99.90
5560;DHT22;2803;47.916;8.074;2023-04-24T04:21:29;11.60;99.90
5560;DHT22;2803;47.916;8.074;2023-04-24T04:23:56;11.20;99.90
5560;DHT22;2803;47.916;8.074;2023-04-24T04:26:23;10.90;99.90
5560;DHT22;2803;47.916;8.074;2023-04-24T04:28:50;11.40;99.90
5560;DHT22;2803;47.916;8.074;2023-04-24T04:31:19;11.50;99.90
5560;DHT22;2803;47.916;8.074;2023-04-24T04:33:46;11.00;99.90
5560;DHT22;2803;47.916;8.074;2023-04-24T04:36:13;10.70;99.90
5560;DHT22;2803;47.916;8.074;2023-04-24T04:38:40;10.70;99.90
5560;DHT22;2803;47.916;8.074;2023-04-24T04:41:08;10.90;99.90
5560;DHT22;2803;47.916;8.074;2023-04-24T04:43:35;11.40;99.90
5560;DHT22;2803;47.916;8.074;2023-04-24T04:46:01;11.20;99.90
5560;DHT22;2803;47.916;8.074;2023-04-24T04:48:30;11.00;99.90
5560;DHT22;2803;47.916;8.074;2023-04-24T04:50:57;11.00;99.90
5560;DHT22;2803;47.916;8.074;2023-04-24T04:53:23;11.10;99.90
5560;DHT22;2803;47.916;8.074;2023-04-24T04:55:51;11.10;99.90
5560;DHT22;2803;47.916;8.074;2023-04-24T04:58:17;11.40;99.90
5560;DHT22;2803;47.916;8.074;2023-04-24T05:00:44;11.30;99.90
5560;DHT22;2803;47.916;8.074;2023-04-24T05:03:11;10.50;99.90
5560;DHT22;2803;47.916;8.074;2023-04-24T05:05:39;10.50;99.90
5560;DHT22;2803;47.916;8.074;2023-04-24T05:08:06;10.70;99.90
5560;DHT22;2803;47.916;8.074;2023-04-24T05:10:33;10.80;99.90
5560;DHT22;2803;47.916;8.074;2023-04-24T05:13:00;10.50;99.90
5560;DHT22;2803;47.916;8.074;2023-04-24T05:15:26;10.60;99.90
5560;DHT22;2803;47.916;8.074;2023-04-24T05:17:53;10.50;99.90
5560;DHT22;2803;47.916;8.074;2023-04-24T05:20:19;10.90;99.90
5560;DHT22;2803;47.916;8.074;2023-04-24T05:22:47;11.10;99.90
5560;DHT22;2803;47.916;8.074;2023-04-24T05:25:14;11.00;99.90
5560;DHT22;2803;47.916;8.074;2023-04-24T05:27:41;11.00;99.90
5560;DHT22;2803;47.916;8.074;2023-04-24T05:30:08;11.40;99.90
5560;DHT22;2803;47.916;8.074;2023-04-24T05:32:35;11.70;99.90
5560;DHT22;2803;47.916;8.074;2023-04-24T05:35:02;11.50;99.90
5560;DHT22;2803;47.916;8.074;2023-04-24T05:37:28;11.80;99.90
5560;DHT22;2803;47.916;8.074;2023-04-24T05:39:56;11.50;99.90
5560;DHT22;2803;47.916;8.074;2023-04-24T05:42:23;11.40;99.90
5560;DHT22;2803;47.916;8.074;2023-04-24T05:44:50;11.20;99.90
5560;DHT22;2803;47.916;8.074;2023-04-24T05:47:16;10.80;99.90
5560;DHT22;2803;47.916;8.074;2023-04-24T05:49:43;10.60;99.90
5560;DHT22;2803;47.916;8.074;2023-04-24T05:52:09;10.90;99.90
5560;DHT22;2803;47.916;8.074;2023-04-24T05:54:36;10.40;99.90
5560;DHT22;2803;47.916;8.074;2023-04-24T05:57:04;10.60;99.90
5560;DHT22;2803;47.916;8.074;2023-04-24T05:59:33;10.40;99.90
5560;DHT22;2803;47.916;8.074;2023-04-24T06:01:59;10.70;99.90
5560;DHT22;2803;47.916;8.074;2023-04-24T06:04:26;10.20;99.90
5560;DHT22;2803;47.916;8.074;2023-04-24T06:06:52;10.10;99.90
5560;DHT22;2803;47.916;8.074;2023-04-24T06:09:21;10.20;99.90
5560;DHT22;2803;47.916;8.074;2023-04-24T06:11:48;10.30;99.90
5560;DHT22;2803;47.916;8.074;2023-04-24T06:14:16;10.50;99.90
5560;DHT22;2803;47.916;8.074;2023-04-24T06:16:43;10.80;99.90
5560;DHT22;2803;47.916;8.074;2023-04-24T06:19:09;10.70;99.90
5560;DHT22;2803;47.916;8.074;2023-04-24T06:21:36;10.30;99.90
5560;DHT22;2803;47.916;8.074;2023-04-24T06:24:03;10.30;99.90
5560;DHT22;2803;47.916;8.074;2023-04-24T06:26:30;10.40;99.90
5560;DHT22;2803;47.916;8.074;2023-04-24T06:28:57;10.20;99.90
5560;DHT22;2803;47.916;8.074;2023-04-24T06:31:25;10.00;99.90
5560;DHT22;2803;47.916;8.074;2023-04-24T06:33:52;10.00;99.90
5560;DHT22;2803;47.916;8.074;2023-04-24T06:36:19;10.00;99.90
5560;DHT22;2803;47.916;8.074;2023-04-24T06:38:46;10.40;99.90
5560;DHT22;2803;47.916;8.074;2023-04-24T06:41:12;10.70;99.90
5560;DHT22;2803;47.916;8.074;2023-04-24T06:43:39;10.40;99.90
5560;DHT22;2803;47.916;8.074;2023-04-24T06:46:05;10.10;99.90
5560;DHT22;2803;47.916;8.074;2023-04-24T06:48:33;10.10;99.90
5560;DHT22;2803;47.916;8.074;2023-04-24T06:51:00;9.90;99.90
5560;DHT22;2803;47.916;8.074;2023-04-24T06:53:26;10.00;99.90
5560;DHT22;2803;47.916;8.074;2023-04-24T06:55:53;9.90;99.90
5560;DHT22;2803;47.916;8.074;2023-04-24T06:58:20;9.60;99.90
5560;DHT22;2803;47.916;8.074;2023-04-24T07:00:47;9.90;99.90
5560;DHT22;2803;47.916;8.074;2023-04-24T07:03:13;9.40;99.90
5560;DHT22;2803;47.916;8.074;2023-04-24T07:05:41;9.40;99.90
5560;DHT22;2803;47.916;8.074;2023-04-24T07:08:08;9.80;99.90
5560;DHT22;2803;47.916;8.074;2023-04-24T07:10:36;9.90;99.90
5560;DHT22;2803;47.916;8.074;2023-04-24T07:13:03;10.20;99.90
5560;DHT22;2803;47.916;8.074;2023-04-24T07:15:30;9.90;99.90
5560;DHT22;2803;47.916;8.074;2023-04-24T07:17:57;9.90;99.90
5560;DHT22;2803;47.916;8.074;2023-04-24T07:20:24;9.70;99.90
5560;DHT22;2803;47.916;8.074;2023-04-24T07:22:52;9.60;99.90
5560;DHT22;2803;47.916;8.074;2023-04-24T07:25:20;9.80;99.90
5560;DHT22;2803;47.916;8.074;2023-04-24T07:27:46;10.00;99.90
5560;DHT22;2803;47.916;8.074;2023-04-24T07:30:14;10.30;99.90
5560;DHT22;2803;47.916;8.074;2023-04-24T07:32:40;10.20;99.90
5560;DHT22;2803;47.916;8.074;2023-04-24T07:35:08;10.10;99.90
5560;DHT22;2803;47.916;8.074;2023-04-24T07:37:35;9.90;99.90
5560;DHT22;2803;47.916;8.074;2023-04-24T07:40:03;9.90;99.90
5560;DHT22;2803;47.916;8.074;2023-04-24T07:42:30;9.80;99.90
5560;DHT22;2803;47.916;8.074;2023-04-24T07:44:56;10.10;99.90
5560;DHT22;2803;47.916;8.074;2023-04-24T07:47:25;10.10;99.90
5560;DHT22;2803;47.916;8.074;2023-04-24T07:49:51;9.90;99.90
5560;DHT22;2803;47.916;8.074;2023-04-24T07:52:18;10.10;99.90
5560;DHT22;2803;47.916;8.074;2023-04-24T07:54:45;10.10;99.90
5560;DHT22;2803;47.916;8.074;2023-04-24T07:57:13;10.20;99.90
5560;DHT22;2803;47.916;8.074;2023-04-24T07:59:39;9.90;99.90
5560;DHT22;2803;47.916;8.074;2023-04-24T08:02:06;10.10;99.90
5560;DHT22;2803;47.916;8.074;2023-04-24T08:04:33;10.30;99.90
5560;DHT22;2803;47.916;8.074;2023-04-24T08:06:59;10.30;99.90
5560;DHT22;2803;47.916;8.074;2023-04-24T08:09:26;10.50;99.90
5560;DHT22;2803;47.916;8.074;2023-04-24T08:11:52;10.70;99.90
5560;DHT22;2803;47.916;8.074;2023-04-24T08:14:20;11.00;99.90
5560;DHT22;2803;47.916;8.074;2023-04-24T08:16:47;10.80;99.90
5560;DHT22;2803;47.916;8.074;2023-04-24T08:19:14;10.70;99.90
5560;DHT22;2803;47.916;8.074;2023-04-24T08:21:40;10.70;99.90
5560;DHT22;2803;47.916;8.074;2023-04-24T08:24:07;10.40;99.90
5560;DHT22;2803;47.916;8.074;2023-04-24T08:26:34;10.60;99.90
5560;DHT22;2803;47.916;8.074;2023-04-24T08:29:00;11.00;99.90
5560;DHT22;2803;47.916;8.074;2023-04-24T08:31:28;10.90;99.90
5560;DHT22;2803;47.916;8.074;2023-04-24T08:33:55;11.00;99.90
5560;DHT22;2803;47.916;8.074;2023-04-24T08:36:22;10.90;99.90
5560;DHT22;2803;47.916;8.074;2023-04-24T08:38:48;10.90;99.90
5560;DHT22;2803;47.916;8.074;2023-04-24T08:41:15;11.20;99.90
5560;DHT22;2803;47.916;8.074;2023-04-24T08:43:46;11.40;99.90
5560;DHT22;2803;47.916;8.074;2023-04-24T08:46:13;11.30;99.90
5560;DHT22;2803;47.916;8.074;2023-04-24T08:48:43;11.00;99.90
5560;DHT22;2803;47.916;8.074;2023-04-24T08:51:09;10.80;99.90
5560;DHT22;2803;47.916;8.074;2023-04-24T08:53:36;10.50;99.90
5560;DHT22;2803;47.916;8.074;2023-04-24T08:56:03;10.50;99.90
5560;DHT22;2803;47.916;8.074;2023-04-24T08:58:33;10.70;99.90
5560;DHT22;2803;47.916;8.074;2023-04-24T09:01:00;10.60;99.90
5560;DHT22;2803;47.916;8.074;2023-04-24T09:03:28;10.60;99.90
5560;DHT22;2803;47.916;8.074;2023-04-24T09:05:57;10.50;99.90
5560;DHT22;2803;47.916;8.074;2023-04-24T09:08:25;10.50;99.90
5560;DHT22;2803;47.916;8.074;2023-04-24T09:10:52;10.70;99.90
5560;DHT22;2803;47.916;8.074;2023-04-24T09:13:19;11.00;99.90
5560;DHT22;2803;47.916;8.074;2023-04-24T09:15:46;10.50;99.90
5560;DHT22;2803;47.916;8.074;2023-04-24T09:18:13;10.50;99.90
5560;DHT22;2803;47.916;8.074;2023-04-24T09:20:59;10.70;99.90
5560;DHT22;2803;47.916;8.074;2023-04-24T09:23:28;10.00;99.90
5560;DHT22;2803;47.916;8.074;2023-04-24T09:25:55;10.10;99.90
5560;DHT22;2803;47.916;8.074;2023-04-24T09:28:25;10.10;99.90
5560;DHT22;2803;47.916;8.074;2023-04-24T09:31:02;9.80;99.90
5560;DHT22;2803;47.916;8.074;2023-04-24T09:33:29;9.90;99.90
5560;DHT22;2803;47.916;8.074;2023-04-24T09:35:56;9.80;99.90
5560;DHT22;2803;47.916;8.074;2023-04-24T09:38:32;9.70;99.90
5560;DHT22;2803;47.916;8.074;2023-04-24T09:41:00;9.80;99.90
5560;DHT22;2803;47.916;8.074;2023-04-24T09:43:28;9.90;99.90
5560;DHT22;2803;47.916;8.074;2023-04-24T09:45:56;10.10;99.90
5560;DHT22;2803;47.916;8.074;2023-04-24T09:48:30;10.20;99.90
5560;DHT22;2803;47.916;8.074;2023-04-24T09:50:57;10.20;99.90
5560;DHT22;2803;47.916;8.074;2023-04-24T09:53:24;10.00;99.90
5560;DHT22;2803;47.916;8.074;2023-04-24T09:55:52;10.20;99.90
5560;DHT22;2803;47.916;8.074;2023-04-24T09:58:24;10.20;99.90
5560;DHT22;2803;47.916;8.074;2023-04-24T10:00:53;10.10;99.90
5560;DHT22;2803;47.916;8.074;2023-04-24T10:03:24;10.20;99.90
5560;DHT22;2803;47.916;8.074;2023-04-24T10:05:51;10.10;99.90
5560;DHT22;2803;47.916;8.074;2023-04-24T10:08:19;10.00;99.90
5560;DHT22;2803;47.916;8.074;2023-04-24T10:10:46;9.50;99.90
5560;DHT22;2803;47.916;8.074;2023-04-24T10:13:14;9.60;99.90
5560;DHT22;2803;47.916;8.074;2023-04-24T10:15:42;9.50;99.90
5560;DHT22;2803;47.916;8.074;2023-04-24T10:18:09;9.40;99.90
5560;DHT22;2803;47.916;8.074;2023-04-24T10:20:37;9.70;99.90
5560;DHT22;2803;47.916;8.074;2023-04-24T10:23:05;9.80;99.90
5560;DHT22;2803;47.916;8.074;2023-04-24T10:25:33;9.60;99.90
5560;DHT22;2803;47.916;8.074;2023-04-24T10:28:01;9.60;99.90
5560;DHT22;2803;47.916;8.074;2023-04-24T10:30:31;9.70;99.90
5560;DHT22;2803;47.916;8.074;2023-04-24T10:33:00;9.80;99.90
5560;DHT22;2803;47.916;8.074;2023-04-24T10:35:31;9.70;99.90
5560;DHT22;2803;47.916;8.074;2023-04-24T10:38:03;10.20;99.90
5560;DHT22;2803;47.916;8.074;2023-04-24T10:40:32;11.10;99.90
5560;DHT22;2803;47.916;8.074;2023-04-24T10:43:02;11.60;99.90
5560;DHT22;2803;47.916;8.074;2023-04-24T10:45:33;12.30;99.90
5560;DHT22;2803;47.916;8.074;2023-04-24T10:48:05;12.10;99.90
5560;DHT22;2803;47.916;8.074;2023-04-24T10:50:47;12.00;99.90
5560;DHT22;2803;47.916;8.074;2023-04-24T10:53:16;11.70;99.90
5560;DHT22;2803;47.916;8.074;2023-04-24T10:55:46;11.40;99.90
5560;DHT22;2803;47.916;8.074;2023-04-24T10:58:14;11.00;99.90
5560;DHT22;2803;47.916;8.074;2023-04-24T11:00:48;10.90;99.90
5560;DHT22;2803;47.916;8.074;2023-04-24T11:03:25;11.20;99.90
5560;DHT22;2803;47.916;8.074;2023-04-24T11:05:56;11.50;99.90
5560;DHT22;2803;47.916;8.074;2023-04-24T11:08:27;12.50;99.90
5560;DHT22;2803;47.916;8.074;2023-04-24T11:11:02;12.90;99.90
5560;DHT22;2803;47.916;8.074;2023-04-24T11:16:29;13.40;99.90
5560;DHT22;2803;47.916;8.074;2023-04-24T11:19:01;13.60;99.90
5560;DHT22;2803;47.916;8.074;2023-04-24T11:21:31;13.30;99.90
5560;DHT22;2803;47.916;8.074;2023-04-24T11:23:57;13.50;99.90
5560;DHT22;2803;47.916;8.074;2023-04-24T11:26:24;13.50;99.90
5560;DHT22;2803;47.916;8.074;2023-04-24T11:29:06;13.30;99.90
5560;DHT22;2803;47.916;8.074;2023-04-24T11:31:37;12.90;99.90
5560;DHT22;2803;47.916;8.074;2023-04-24T11:34:08;12.20;99.90
5560;DHT22;2803;47.916;8.074;2023-04-24T11:36:35;11.70;99.90
5560;DHT22;2803;47.916;8.074;2023-04-24T11:39:02;11.80;99.90
5560;DHT22;2803;47.916;8.074;2023-04-24T11:41:29;11.60;99.90
5560;DHT22;2803;47.916;8.074;2023-04-24T11:43:56;11.70;99.90
5560;DHT22;2803;47.916;8.074;2023-04-24T11:46:26;11.50;99.90
5560;DHT22;2803;47.916;8.074;2023-04-24T11:48:54;11.90;99.90
5560;DHT22;2803;47.916;8.074;2023-04-24T11:51:20;11.90;99.90
5560;DHT22;2803;47.916;8.074;2023-04-24T11:53:48;12.30;99.90
5560;DHT22;2803;47.916;8.074;2023-04-24T11:56:17;12.50;99.90
5560;DHT22;2803;47.916;8.074;2023-04-24T11:58:45;12.60;99.90
5560;DHT22;2803;47.916;8.074;2023-04-24T12:01:12;12.60;99.90
5560;DHT22;2803;47.916;8.074;2023-04-24T12:03:38;12.30;99.90
5560;DHT22;2803;47.916;8.074;2023-04-24T12:06:07;12.20;99.90
5560;DHT22;2803;47.916;8.074;2023-04-24T12:08:34;12.20;99.90
5560;DHT22;2803;47.916;8.074;2023-04-24T12:11:01;12.80;99.90
5560;DHT22;2803;47.916;8.074;2023-04-24T12:13:28;13.70;99.90
5560;DHT22;2803;47.916;8.074;2023-04-24T12:15:54;13.50;99.90
5560;DHT22;2803;47.916;8.074;2023-04-24T12:18:22;12.80;99.90
5560;DHT22;2803;47.916;8.074;2023-04-24T12:20:49;12.80;99.90
5560;DHT22;2803;47.916;8.074;2023-04-24T12:23:33;12.50;99.90
5560;DHT22;2803;47.916;8.074;2023-04-24T12:26:03;12.30;99.90
5560;DHT22;2803;47.916;8.074;2023-04-24T12:28:35;12.50;99.90
5560;DHT22;2803;47.916;8.074;2023-04-24T12:31:02;12.40;99.90
5560;DHT22;2803;47.916;8.074;2023-04-24T12:33:32;12.30;99.90
5560;DHT22;2803;47.916;8.074;2023-04-24T12:35:59;12.20;99.90
5560;DHT22;2803;47.916;8.074;2023-04-24T12:38:28;11.80;99.90
5560;DHT22;2803;47.916;8.074;2023-04-24T12:41:03;12.10;99.90
5560;DHT22;2803;47.916;8.074;2023-04-24T12:43:30;12.10;99.90
5560;DHT22;2803;47.916;8.074;2023-04-24T12:45:57;12.40;99.90
5560;DHT22;2803;47.916;8.074;2023-04-24T12:48:24;12.60;99.90
5560;DHT22;2803;47.916;8.074;2023-04-24T12:50:51;12.80;99.90
5560;DHT22;2803;47.916;8.074;2023-04-24T12:53:17;13.10;99.90
5560;DHT22;2803;47.916;8.074;2023-04-24T12:55:45;13.10;99.90
5560;DHT22;2803;47.916;8.074;2023-04-24T12:58:17;13.60;99.90
5560;DHT22;2803;47.916;8.074;2023-04-24T13:00:44;13.90;99.90
5560;DHT22;2803;47.916;8.074;2023-04-24T13:03:11;13.50;99.90
5560;DHT22;2803;47.916;8.074;2023-04-24T13:05:38;12.90;99.90
5560;DHT22;2803;47.916;8.074;2023-04-24T13:08:05;12.50;99.90
5560;DHT22;2803;47.916;8.074;2023-04-24T13:10:31;12.40;99.90
5560;DHT22;2803;47.916;8.074;2023-04-24T13:12:59;12.50;99.90
5560;DHT22;2803;47.916;8.074;2023-04-24T13:15:26;12.20;99.90
5560;DHT22;2803;47.916;8.074;2023-04-24T13:17:52;12.00;99.90
5560;DHT22;2803;47.916;8.074;2023-04-24T13:20:19;12.20;99.90
5560;DHT22;2803;47.916;8.074;2023-04-24T13:22:45;12.20;99.90
5560;DHT22;2803;47.916;8.074;2023-04-24T13:25:12;12.20;99.90
5560;DHT22;2803;47.916;8.074;2023-04-24T13:27:42;12.20;99.90
5560;DHT22;2803;47.916;8.074;2023-04-24T13:30:10;12.50;99.90
5560;DHT22;2803;47.916;8.074;2023-04-24T13:32:37;12.60;99.90
5560;DHT22;2803;47.916;8.074;2023-04-24T13:35:04;12.50;99.90
5560;DHT22;2803;47.916;8.074;2023-04-24T13:37:31;12.30;99.90
5560;DHT22;2803;47.916;8.074;2023-04-24T13:39:57;12.70;99.90
5560;DHT22;2803;47.916;8.074;2023-04-24T13:42:24;12.50;99.90
5560;DHT22;2803;47.916;8.074;2023-04-24T13:44:51;12.50;99.90
5560;DHT22;2803;47.916;8.074;2023-04-24T13:47:20;12.40;99.90
5560;DHT22;2803;47.916;8.074;2023-04-24T13:49:47;12.50;99.90
5560;DHT22;2803;47.916;8.074;2023-04-24T13:52:13;12.20;99.90
5560;DHT22;2803;47.916;8.074;2023-04-24T13:54:41;12.00;99.90
5560;DHT22;2803;47.916;8.074;2023-04-24T13:57:07;12.20;99.90
5560;DHT22;2803;47.916;8.074;2023-04-24T13:59:34;11.90;99.90
5560;DHT22;2803;47.916;8.074;2023-04-24T14:02:00;11.80;99.90
5560;DHT22;2803;47.916;8.074;2023-04-24T14:04:28;11.90;99.90
5560;DHT22;2803;47.916;8.074;2023-04-24T14:06:55;11.90;99.90
5560;DHT22;2803;47.916;8.074;2023-04-24T14:09:22;12.10;99.90
5560;DHT22;2803;47.916;8.074;2023-04-24T14:11:51;12.20;99.90
5560;DHT22;2803;47.916;8.074;2023-04-24T14:14:18;13.10;99.90
5560;DHT22;2803;47.916;8.074;2023-04-24T14:16:44;13.90;99.90
5560;DHT22;2803;47.916;8.074;2023-04-24T14:19:11;14.00;99.90
5560;DHT22;2803;47.916;8.074;2023-04-24T14:21:39;13.50;99.90
5560;DHT22;2803;47.916;8.074;2023-04-24T14:24:05;13.30;99.90
5560;DHT22;2803;47.916;8.074;2023-04-24T14:26:32;13.30;99.90
5560;DHT22;2803;47.916;8.074;2023-04-24T14:28:58;13.40;99.90
5560;DHT22;2803;47.916;8.074;2023-04-24T14:31:25;13.00;99.90
5560;DHT22;2803;47.916;8.074;2023-04-24T14:33:52;13.20;99.90
5560;DHT22;2803;47.916;8.074;2023-04-24T14:36:18;12.90;99.90
5560;DHT22;2803;47.916;8.074;2023-04-24T14:38:46;12.40;99.90
5560;DHT22;2803;47.916;8.074;2023-04-24T14:41:13;12.20;99.90
5560;DHT22;2803;47.916;8.074;2023-04-24T14:43:39;12.00;99.90
5560;DHT22;2803;47.916;8.074;2023-04-24T14:46:06;12.10;99.90
5560;DHT22;2803;47.916;8.074;2023-04-24T14:48:33;11.70;99.90
5560;DHT22;2803;47.916;8.074;2023-04-24T14:50:59;12.00;99.90
5560;DHT22;2803;47.916;8.074;2023-04-24T14:53:26;12.10;99.90
5560;DHT22;2803;47.916;8.074;2023-04-24T14:55:54;12.30;99.90
5560;DHT22;2803;47.916;8.074;2023-04-24T14:58:20;11.80;99.90
5560;DHT22;2803;47.916;8.074;2023-04-24T15:00:47;11.60;99.90
5560;DHT22;2803;47.916;8.074;2023-04-24T15:03:17;11.30;99.90
5560;DHT22;2803;47.916;8.074;2023-04-24T15:05:44;11.70;99.90
5560;DHT22;2803;47.916;8.074;2023-04-24T15:08:11;11.60;99.90
5560;DHT22;2803;47.916;8.074;2023-04-24T15:10:38;11.60;99.90
5560;DHT22;2803;47.916;8.074;2023-04-24T15:13:06;12.00;99.90
5560;DHT22;2803;47.916;8.074;2023-04-24T15:15:32;11.30;99.90
5560;DHT22;2803;47.916;8.074;2023-04-24T15:17:59;11.60;99.90
5560;DHT22;2803;47.916;8.074;2023-04-24T15:20:25;12.20;99.90
5560;DHT22;2803;47.916;8.074;2023-04-24T15:22:52;12.50;99.90
5560;DHT22;2803;47.916;8.074;2023-04-24T15:25:18;12.50;99.90
5560;DHT22;2803;47.916;8.074;2023-04-24T15:27:45;12.60;99.90
5560;DHT22;2803;47.916;8.074;2023-04-24T15:30:14;12.50;99.90
5560;DHT22;2803;47.916;8.074;2023-04-24T15:32:40;12.10;99.90
5560;DHT22;2803;47.916;8.074;2023-04-24T15:35:08;12.20;99.90
5560;DHT22;2803;47.916;8.074;2023-04-24T15:37:34;11.90;99.90
5560;DHT22;2803;47.916;8.074;2023-04-24T15:40:01;12.10;99.90
5560;DHT22;2803;47.916;8.074;2023-04-24T15:42:30;12.20;99.90
5560;DHT22;2803;47.916;8.074;2023-04-24T15:44:57;11.90;99.90
5560;DHT22;2803;47.916;8.074;2023-04-24T15:47:25;11.70;99.90
5560;DHT22;2803;47.916;8.074;2023-04-24T15:49:52;12.00;99.90
5560;DHT22;2803;47.916;8.074;2023-04-24T15:52:19;12.10;99.90
5560;DHT22;2803;47.916;8.074;2023-04-24T15:54:45;11.90;99.90
5560;DHT22;2803;47.916;8.074;2023-04-24T15:57:12;11.50;99.90
5560;DHT22;2803;47.916;8.074;2023-04-24T15:59:38;11.50;99.90
5560;DHT22;2803;47.916;8.074;2023-04-24T16:02:05;11.80;99.90
5560;DHT22;2803;47.916;8.074;2023-04-24T16:04:33;11.80;99.90
5560;DHT22;2803;47.916;8.074;2023-04-24T16:07:00;11.80;99.90